Time;durP1;ratioP1;P1;durP2;ratioP2;P2;SDS_P1;SDS_P2;PMS_P1;PMS_P2;Temp;Humidity;BMP_temperature;BMP_pressure;BME280_temperature;BME280_humidity;BME280_pressure;Samples;Min_cycle;Max_cycle;Signal;HPM_P1;HPM_P2
2024/03/10 00:01:27;;;;;;;38.40;21.37;;;1.90;99.90;;;;;;5122290;28;20233;-78
2024/03/10 00:03:54;;;;;;;37.03;19.67;;;1.70;99.90;;;;;;5122713;27;20211;-78
2024/03/10 00:06:21;;;;;;;39.23;20.87;;;1.80;99.90;;;;;;5122346;27;20261;-78
2024/03/10 00:08:48;;;;;;;38.93;21.50;;;1.80;99.90;;;;;;5122295;28;20239;-78
2024/03/10 00:11:15;;;;;;;43.73;22.73;;;1.90;99.90;;;;;;5122250;28;20216;-78
2024/03/10 00:13:42;;;;;;;35.73;19.97;;;2.00;99.90;;;;;;5122280;28;20200;-78
2024/03/10 00:16:10;;;;;;;37.43;20.03;;;2.00;99.90;;;;;;5122533;28;20249;-78
2024/03/10 00:18:38;;;;;;;39.60;20.23;;;2.00;99.90;;;;;;5122282;28;20264;-77
2024/03/10 00:21:05;;;;;;;39.07;20.77;;;2.20;99.90;;;;;;5122041;28;20252;-78
2024/03/10 00:23:33;;;;;;;38.67;20.37;;;2.30;99.90;;;;;;5123771;28;20201;-79
2024/03/10 00:26:00;;;;;;;38.03;20.10;;;2.20;99.90;;;;;;5122990;28;20336;-78
2024/03/10 00:28:27;;;;;;;36.87;19.40;;;1.90;99.90;;;;;;5123130;28;20204;-79
2024/03/10 00:30:54;;;;;;;39.73;20.33;;;1.60;99.90;;;;;;5121976;28;20247;-78
2024/03/10 00:33:21;;;;;;;36.40;19.07;;;1.50;99.90;;;;;;5123212;28;20250;-76
2024/03/10 00:35:49;;;;;;;36.47;19.83;;;1.40;99.90;;;;;;5122149;28;20205;-76
2024/03/10 00:38:17;;;;;;;39.90;20.67;;;1.20;99.90;;;;;;5122899;27;20227;-78
2024/03/10 00:40:44;;;;;;;40.07;21.23;;;1.10;99.90;;;;;;5122878;28;20754;-76
2024/03/10 00:43:11;;;;;;;40.60;19.93;;;1.10;99.90;;;;;;5122524;28;20269;-77
2024/03/10 00:45:37;;;;;;;39.00;20.83;;;1.10;99.90;;;;;;5122664;28;20237;-79
2024/03/10 00:48:06;;;;;;;37.40;19.63;;;1.20;99.90;;;;;;5122418;28;20580;-77
2024/03/10 00:50:33;;;;;;;41.23;21.50;;;1.00;99.90;;;;;;5122130;28;20281;-79
2024/03/10 00:53:02;;;;;;;40.23;20.47;;;1.00;99.90;;;;;;5122592;28;20201;-77
2024/03/10 00:55:29;;;;;;;37.40;19.93;;;1.00;99.90;;;;;;5120852;28;20533;-77
2024/03/10 00:57:56;;;;;;;38.77;19.93;;;1.00;99.90;;;;;;5121056;28;20208;-77
2024/03/10 01:00:24;;;;;;;37.97;21.33;;;1.00;99.90;;;;;;5122217;28;20235;-78
2024/03/10 01:02:52;;;;;;;38.27;19.87;;;0.90;99.90;;;;;;5122159;28;20681;-76
2024/03/10 01:05:19;;;;;;;41.33;20.77;;;0.80;99.90;;;;;;5121993;28;20691;-76
2024/03/10 01:07:46;;;;;;;39.20;20.33;;;0.60;99.90;;;;;;5122111;27;20200;-77
2024/03/10 01:10:14;;;;;;;39.90;20.27;;;0.30;99.90;;;;;;5121838;28;20217;-77
2024/03/10 01:12:41;;;;;;;42.60;20.73;;;0.30;99.90;;;;;;5122345;28;20212;-77
2024/03/10 01:15:09;;;;;;;40.13;20.13;;;0.40;99.90;;;;;;5121240;28;20201;-78
2024/03/10 01:17:36;;;;;;;42.40;21.07;;;0.30;99.90;;;;;;5122368;28;20232;-79
2024/03/10 01:20:04;;;;;;;42.60;21.90;;;0.50;99.90;;;;;;5121414;28;20740;-78
2024/03/10 01:22:31;;;;;;;45.37;23.17;;;0.70;99.90;;;;;;5120680;28;20292;-78
2024/03/10 01:24:58;;;;;;;43.17;22.60;;;0.80;99.90;;;;;;5120927;28;20697;-78
2024/03/10 01:27:26;;;;;;;40.27;20.60;;;0.90;99.90;;;;;;5120712;28;20250;-78
2024/03/10 01:29:53;;;;;;;40.60;20.00;;;0.80;99.90;;;;;;5119962;28;20223;-79
2024/03/10 01:32:20;;;;;;;38.37;20.10;;;0.70;99.90;;;;;;5120278;28;20255;-78
2024/03/10 01:34:48;;;;;;;39.53;20.97;;;0.60;99.90;;;;;;5120273;28;20201;-79
2024/03/10 01:37:15;;;;;;;40.30;20.97;;;0.70;99.90;;;;;;5120750;28;20246;-78
2024/03/10 01:39:42;;;;;;;44.70;23.43;;;0.80;99.90;;;;;;5121544;27;20558;-77
2024/03/10 01:42:09;;;;;;;37.63;20.17;;;0.90;99.90;;;;;;5121192;28;20250;-77
2024/03/10 01:44:37;;;;;;;39.57;20.73;;;0.70;99.90;;;;;;5121219;28;20209;-77
2024/03/10 01:47:05;;;;;;;41.10;23.57;;;0.70;99.90;;;;;;5121964;28;20201;-77
2024/03/10 01:49:33;;;;;;;44.70;25.13;;;0.70;99.90;;;;;;5122340;28;20548;-78
2024/03/10 01:52:02;;;;;;;43.73;22.27;;;0.90;99.90;;;;;;5121980;28;20213;-77
2024/03/10 01:54:34;;;;;;;41.60;21.67;;;1.20;99.90;;;;;;5122078;28;20651;-77
2024/03/10 01:57:04;;;;;;;46.23;22.93;;;1.30;99.90;;;;;;5121777;28;20223;-77
2024/03/10 01:59:32;;;;;;;44.13;23.30;;;1.30;99.90;;;;;;5121532;28;20244;-76
2024/03/10 02:02:01;;;;;;;48.23;24.30;;;1.40;99.90;;;;;;5120872;28;20221;-77
2024/03/10 02:04:28;;;;;;;43.00;23.23;;;1.40;99.90;;;;;;5120649;28;20226;-77
2024/03/10 02:06:55;;;;;;;45.57;22.93;;;1.40;99.90;;;;;;5120777;28;20197;-78
2024/03/10 02:09:23;;;;;;;46.83;23.53;;;1.50;99.90;;;;;;5119597;28;20663;-78
2024/03/10 02:11:50;;;;;;;48.07;25.67;;;1.50;99.90;;;;;;5120334;28;20706;-78
2024/03/10 02:14:17;;;;;;;45.33;22.27;;;1.40;99.90;;;;;;5119998;28;20196;-78
2024/03/10 02:16:44;;;;;;;45.33;23.47;;;1.20;99.90;;;;;;5119877;28;20693;-78
2024/03/10 02:19:16;;;;;;;44.80;22.70;;;1.20;99.90;;;;;;5120072;28;20262;-78
2024/03/10 02:21:44;;;;;;;46.07;24.57;;;1.20;99.90;;;;;;5119548;28;20308;-79
2024/03/10 02:24:16;;;;;;;44.90;23.60;;;1.20;99.90;;;;;;5119476;28;20204;-79
2024/03/10 02:26:46;;;;;;;46.40;23.80;;;1.10;99.90;;;;;;5119898;28;20233;-79
2024/03/10 02:29:18;;;;;;;47.83;23.30;;;1.20;99.90;;;;;;5120815;28;20284;-76
2024/03/10 02:48:13;;;;;;;46.03;22.70;;;0.90;99.90;;;;;;5119042;28;20180;-78
2024/03/10 02:50:41;;;;;;;41.57;21.00;;;0.80;99.90;;;;;;5118683;28;20221;-79
2024/03/10 02:53:10;;;;;;;42.93;21.27;;;0.70;99.90;;;;;;5118766;28;20203;-79
2024/03/10 02:55:37;;;;;;;40.37;21.53;;;0.70;99.90;;;;;;5117372;28;20208;-77
2024/03/10 02:58:07;;;;;;;40.63;21.73;;;0.40;99.90;;;;;;5119417;28;20210;-78
2024/03/10 03:00:35;;;;;;;45.63;23.80;;;0.30;99.90;;;;;;5118870;28;20229;-78
2024/03/10 03:03:05;;;;;;;46.73;24.23;;;0.50;99.90;;;;;;5119337;28;20201;-78
2024/03/10 03:05:31;;;;;;;46.77;22.33;;;0.80;99.90;;;;;;5119872;28;20645;-78
2024/03/10 03:07:59;;;;;;;46.77;24.43;;;0.60;99.90;;;;;;5119312;28;20205;-79
2024/03/10 03:10:26;;;;;;;45.13;24.23;;;0.50;99.90;;;;;;5119750;28;20221;-77
2024/03/10 03:12:54;;;;;;;50.73;28.73;;;0.60;99.90;;;;;;5119931;28;20227;-76
2024/03/10 03:15:22;;;;;;;52.60;26.03;;;0.70;99.90;;;;;;5119503;28;20232;-78
2024/03/10 03:17:49;;;;;;;49.40;24.77;;;0.60;99.90;;;;;;5118493;28;20220;-78
2024/03/10 03:20:17;;;;;;;52.90;27.07;;;0.90;99.90;;;;;;5118751;28;20710;-77
2024/03/10 03:22:47;;;;;;;48.07;26.30;;;0.90;99.90;;;;;;5123124;28;20663;-77
2024/03/10 03:25:14;;;;;;;50.33;25.77;;;1.00;99.90;;;;;;5123449;28;20205;-79
2024/03/10 03:27:41;;;;;;;53.10;26.57;;;1.10;99.90;;;;;;5124246;28;20205;-77
2024/03/10 03:30:09;;;;;;;54.97;27.07;;;1.00;99.90;;;;;;5124082;28;20251;-77
2024/03/10 03:32:37;;;;;;;49.53;25.77;;;1.00;99.90;;;;;;5124904;28;20208;-78
2024/03/10 03:35:04;;;;;;;52.17;25.83;;;0.90;99.90;;;;;;5124094;28;20201;-77
2024/03/10 03:37:31;;;;;;;49.97;26.00;;;0.50;99.90;;;;;;5124211;28;20201;-78
2024/03/10 03:39:58;;;;;;;50.27;25.67;;;0.20;99.90;;;;;;5124529;28;20224;-77
2024/03/10 03:42:27;;;;;;;49.97;25.87;;;0.20;99.90;;;;;;5124091;28;20225;-79
2024/03/10 03:44:54;;;;;;;57.57;27.90;;;0.10;99.90;;;;;;5123904;28;20739;-78
2024/03/10 03:47:21;;;;;;;52.43;27.17;;;0.10;99.90;;;;;;5123773;28;20560;-77
2024/03/10 03:49:49;;;;;;;54.27;26.47;;;0.20;99.90;;;;;;5122614;28;20230;-79
2024/03/10 03:52:18;;;;;;;57.83;29.03;;;0.50;99.90;;;;;;5122934;28;20201;-78
2024/03/10 03:54:45;;;;;;;55.60;26.97;;;0.60;99.90;;;;;;5123443;28;20205;-76
2024/03/10 03:57:12;;;;;;;60.77;31.77;;;0.70;99.90;;;;;;5123138;28;20205;-78
2024/03/10 03:59:40;;;;;;;58.23;28.93;;;0.70;99.90;;;;;;5124347;28;20254;-77
2024/03/10 04:02:07;;;;;;;60.87;29.47;;;0.60;99.90;;;;;;5123463;28;20228;-76
2024/03/10 04:04:34;;;;;;;66.70;29.93;;;0.60;99.90;;;;;;5124475;28;20208;-76
2024/03/10 04:07:04;;;;;;;65.03;29.37;;;0.70;99.90;;;;;;5124882;28;20209;-79
2024/03/10 04:09:31;;;;;;;59.23;29.70;;;0.60;99.90;;;;;;5125099;28;20197;-78
2024/03/10 04:11:59;;;;;;;58.20;29.60;;;0.50;99.90;;;;;;5123894;28;20228;-77
2024/03/10 04:14:26;;;;;;;58.53;28.67;;;0.30;99.90;;;;;;5123230;28;20207;-78
2024/03/10 04:16:53;;;;;;;65.63;29.53;;;0.40;99.90;;;;;;5117794;28;20572;-78
2024/03/10 04:19:20;;;;;;;66.63;34.87;;;0.40;99.90;;;;;;5108339;28;20239;-78
2024/03/10 04:21:48;;;;;;;67.60;34.67;;;0.30;99.90;;;;;;5109869;28;20270;-78
2024/03/10 04:24:16;;;;;;;69.73;30.37;;;0.30;99.90;;;;;;5112236;28;20194;-79
2024/03/10 04:26:43;;;;;;;60.97;30.00;;;0.10;99.90;;;;;;5110085;28;20197;-78
2024/03/10 04:29:11;;;;;;;56.77;27.90;;;0.00;99.90;;;;;;5104374;28;20243;-78
2024/03/10 04:31:38;;;;;;;64.50;28.90;;;0.00;99.90;;;;;;5113906;28;20217;-79
2024/03/10 04:34:05;;;;;;;63.43;30.23;;;-0.10;99.90;;;;;;5108793;28;20193;-79
2024/03/10 04:36:33;;;;;;;64.77;29.67;;;-0.10;99.90;;;;;;5110409;28;20202;-78
2024/03/10 04:39:00;;;;;;;66.00;29.57;;;0.00;99.90;;;;;;5108346;28;20559;-78
2024/03/10 04:41:29;;;;;;;65.87;31.07;;;0.10;99.90;;;;;;5105731;28;20615;-78
2024/03/10 04:43:56;;;;;;;62.93;29.30;;;0.10;99.90;;;;;;5099389;28;20586;-78
2024/03/10 04:46:24;;;;;;;66.60;30.33;;;0.10;99.90;;;;;;5108554;28;20231;-77
2024/03/10 04:48:51;;;;;;;65.20;30.10;;;0.00;99.90;;;;;;5102965;28;20277;-77
2024/03/10 04:51:18;;;;;;;71.37;30.90;;;0.00;99.90;;;;;;5102622;28;20300;-78
2024/03/10 04:53:45;;;;;;;68.57;29.97;;;0.20;99.90;;;;;;5096766;28;20684;-78
2024/03/10 04:56:13;;;;;;;69.63;30.13;;;0.10;99.90;;;;;;5105911;28;20198;-77
2024/03/10 04:58:42;;;;;;;66.03;29.00;;;0.10;99.90;;;;;;5110477;28;20207;-78
2024/03/10 05:01:10;;;;;;;67.13;30.13;;;0.00;99.90;;;;;;5109160;28;20320;-78
2024/03/10 05:03:38;;;;;;;71.80;31.30;;;0.10;99.90;;;;;;5110353;28;20295;-77
2024/03/10 05:06:09;;;;;;;70.47;30.60;;;0.20;99.90;;;;;;5107174;28;20207;-78
2024/03/10 05:08:37;;;;;;;70.27;30.93;;;0.10;99.90;;;;;;5106927;28;20209;-76
2024/03/10 05:11:04;;;;;;;73.30;33.70;;;0.20;99.90;;;;;;5107165;28;20642;-78
2024/03/10 05:13:34;;;;;;;70.47;30.93;;;0.30;99.90;;;;;;5106623;28;20203;-78
2024/03/10 05:16:03;;;;;;;70.33;31.93;;;0.30;99.90;;;;;;5101952;28;20229;-77
2024/03/10 05:18:31;;;;;;;64.77;28.87;;;0.30;99.90;;;;;;5100572;28;20244;-77
2024/03/10 05:20:58;;;;;;;79.03;34.37;;;0.00;99.90;;;;;;5104815;28;20213;-78
2024/03/10 05:23:25;;;;;;;71.83;32.33;;;0.10;99.90;;;;;;5108085;28;20232;-78
2024/03/10 05:25:52;;;;;;;75.87;33.07;;;0.20;99.90;;;;;;5106039;28;20215;-77
2024/03/10 05:28:19;;;;;;;77.90;33.97;;;0.10;99.90;;;;;;5102116;28;20201;-78
2024/03/10 05:30:46;;;;;;;75.00;37.23;;;0.00;99.90;;;;;;5105804;28;20256;-77
2024/03/10 05:33:14;;;;;;;70.03;31.97;;;-0.10;99.90;;;;;;5105978;28;20234;-77
2024/03/10 05:35:41;;;;;;;72.37;30.77;;;-0.10;99.90;;;;;;5107113;28;20235;-77
2024/03/10 05:38:08;;;;;;;69.40;31.57;;;-0.20;99.90;;;;;;5109037;28;20241;-78
2024/03/10 05:40:35;;;;;;;71.53;38.13;;;-0.30;99.90;;;;;;5109853;28;20368;-78
2024/03/10 05:43:02;;;;;;;74.40;32.93;;;-0.30;99.90;;;;;;5105744;28;20409;-77
2024/03/10 05:45:29;;;;;;;74.37;31.73;;;-0.20;99.90;;;;;;5101513;28;20220;-77
2024/03/10 05:47:57;;;;;;;73.80;34.00;;;0.30;99.90;;;;;;5109921;28;20214;-77
2024/03/10 05:50:25;;;;;;;77.20;34.63;;;0.50;99.90;;;;;;5103775;28;20707;-79
2024/03/10 05:52:53;;;;;;;81.47;36.73;;;0.60;99.90;;;;;;5111201;28;20206;-78
2024/03/10 05:55:20;;;;;;;66.93;31.17;;;0.60;99.90;;;;;;5113735;28;20201;-79
2024/03/10 05:57:47;;;;;;;69.93;32.30;;;0.60;99.90;;;;;;5112090;28;20209;-79
2024/03/10 06:00:15;;;;;;;78.30;33.03;;;0.60;99.90;;;;;;5108018;28;20707;-79
2024/03/10 06:02:44;;;;;;;81.20;33.37;;;0.50;99.90;;;;;;5111347;28;20227;-79
2024/03/10 06:05:13;;;;;;;78.43;35.17;;;0.70;99.90;;;;;;5105991;28;20204;-78
2024/03/10 06:07:42;;;;;;;59.60;29.00;;;0.80;99.90;;;;;;5111620;28;20261;-77
2024/03/10 06:10:10;;;;;;;62.93;28.17;;;0.90;99.90;;;;;;5109956;28;20247;-78
2024/03/10 06:12:38;;;;;;;62.27;27.23;;;0.90;99.90;;;;;;5110639;28;20301;-78
2024/03/10 06:15:10;;;;;;;76.57;36.87;;;0.90;99.90;;;;;;5098913;28;20203;-78
2024/03/10 06:17:37;;;;;;;64.13;27.93;;;0.90;99.90;;;;;;5100420;28;20212;-79
2024/03/10 06:25:35;;;;;;;78.23;35.80;;;1.10;99.90;;;;;;5100136;28;20212;-80
2024/03/10 06:28:02;;;;;;;76.10;33.83;;;1.10;99.90;;;;;;5108473;28;20599;-78
2024/03/10 06:30:29;;;;;;;75.50;34.30;;;1.20;99.90;;;;;;5100258;28;20221;-77
2024/03/10 06:32:56;;;;;;;79.60;35.40;;;1.10;99.90;;;;;;5100948;28;20232;-78
2024/03/10 06:35:23;;;;;;;76.60;34.77;;;1.30;99.90;;;;;;5105597;28;20247;-78
2024/03/10 06:37:51;;;;;;;66.67;29.67;;;1.30;99.90;;;;;;5111928;28;20288;-78
2024/03/10 06:40:18;;;;;;;72.30;28.13;;;1.20;99.90;;;;;;5097826;28;20248;-78
2024/03/10 06:42:46;;;;;;;68.50;30.77;;;1.30;99.90;;;;;;5102955;28;20257;-77
2024/03/10 06:45:13;;;;;;;61.67;25.90;;;1.30;99.90;;;;;;5108559;28;20295;-78
2024/03/10 06:47:41;;;;;;;60.37;28.37;;;1.30;99.90;;;;;;5110126;28;20221;-78
2024/03/10 06:50:09;;;;;;;65.03;31.80;;;1.40;99.90;;;;;;5108888;28;20262;-78
2024/03/10 06:52:37;;;;;;;67.73;29.23;;;1.40;99.90;;;;;;5100468;28;20647;-78
2024/03/10 06:55:06;;;;;;;85.03;37.00;;;1.50;99.90;;;;;;5101007;28;20193;-77
2024/03/10 06:57:33;;;;;;;72.30;32.97;;;1.60;99.90;;;;;;5103343;28;20250;-78
2024/03/10 07:00:00;;;;;;;70.17;32.80;;;1.60;99.90;;;;;;5109172;28;20196;-79
2024/03/10 07:02:28;;;;;;;82.13;34.43;;;1.70;99.90;;;;;;5112193;28;20244;-79
2024/03/10 07:05:00;;;;;;;70.13;31.27;;;1.80;99.90;;;;;;5110091;28;20296;-79
2024/03/10 07:07:27;;;;;;;60.87;28.33;;;1.80;99.90;;;;;;5113069;28;20231;-80
2024/03/10 07:09:55;;;;;;;82.90;33.43;;;2.40;99.90;;;;;;5107147;28;20200;-79
2024/03/10 07:12:24;;;;;;;75.87;33.93;;;1.90;99.90;;;;;;5107716;28;20197;-78
2024/03/10 07:14:51;;;;;;;50.87;25.03;;;2.00;99.90;;;;;;5104555;28;20203;-78
2024/03/10 07:17:18;;;;;;;76.93;35.27;;;2.00;99.90;;;;;;5103442;28;20288;-78
2024/03/10 07:19:45;;;;;;;67.40;29.40;;;2.10;99.90;;;;;;5092908;28;20201;-78
2024/03/10 07:22:13;;;;;;;69.47;31.47;;;2.10;99.90;;;;;;5101244;28;20218;-78
2024/03/10 07:24:40;;;;;;;61.53;30.27;;;2.20;99.90;;;;;;5103964;28;20211;-78
2024/03/10 07:27:07;;;;;;;76.10;36.33;;;2.20;99.90;;;;;;5104042;28;20269;-78
2024/03/10 07:29:36;;;;;;;52.23;24.57;;;2.20;99.90;;;;;;5097883;28;20202;-78
2024/03/10 07:32:05;;;;;;;59.33;26.40;;;2.30;99.90;;;;;;5099077;28;20303;-78
2024/03/10 07:34:32;;;;;;;75.80;34.80;;;2.40;99.90;;;;;;5107505;28;20555;-79
2024/03/10 07:37:00;;;;;;;76.73;36.53;;;2.50;99.90;;;;;;5101277;28;20240;-80
2024/03/10 07:39:28;;;;;;;65.17;29.47;;;2.60;99.90;;;;;;5103202;28;20201;-79
2024/03/10 07:41:57;;;;;;;75.37;36.37;;;2.70;99.90;;;;;;5103279;28;20221;-79
2024/03/10 07:44:25;;;;;;;73.23;34.97;;;2.80;99.90;;;;;;5105408;28;20216;-79
2024/03/10 07:46:54;;;;;;;66.60;31.17;;;2.90;99.90;;;;;;5107116;28;20209;-78
2024/03/10 07:49:21;;;;;;;70.27;32.70;;;2.90;99.90;;;;;;5106607;28;20254;-78
2024/03/10 07:51:48;;;;;;;67.87;31.37;;;2.90;99.90;;;;;;5101460;28;20264;-79
2024/03/10 07:54:14;;;;;;;70.33;35.23;;;3.00;99.90;;;;;;5106122;28;20232;-79
2024/03/10 07:56:41;;;;;;;68.93;34.20;;;3.10;99.90;;;;;;5109408;28;20232;-77
2024/03/10 07:59:08;;;;;;;66.00;31.10;;;3.10;99.90;;;;;;5104422;28;20247;-78
2024/03/10 08:01:35;;;;;;;55.90;28.20;;;3.20;99.90;;;;;;5101980;28;20274;-79
2024/03/10 08:04:04;;;;;;;65.87;31.03;;;3.30;99.90;;;;;;5105634;28;20225;-79
2024/03/10 08:06:31;;;;;;;41.50;20.97;;;3.30;99.90;;;;;;5097956;28;20244;-77
2024/03/10 08:08:59;;;;;;;78.47;38.93;;;3.30;99.90;;;;;;5110016;28;20226;-79
2024/03/10 08:11:26;;;;;;;73.60;36.77;;;3.40;99.90;;;;;;5111400;28;20223;-79
2024/03/10 08:13:53;;;;;;;71.60;35.87;;;3.40;99.90;;;;;;5113637;28;20233;-78
2024/03/10 08:16:20;;;;;;;72.60;35.90;;;3.50;99.90;;;;;;5105895;28;20262;-78
2024/03/10 08:18:47;;;;;;;73.43;36.30;;;3.60;99.90;;;;;;5100217;28;20266;-79
2024/03/10 08:21:16;;;;;;;65.67;33.70;;;3.60;99.90;;;;;;5103505;28;20229;-77
2024/03/10 08:23:43;;;;;;;72.23;35.70;;;3.60;99.90;;;;;;5113895;28;20273;-79
2024/03/10 08:26:10;;;;;;;70.10;35.07;;;3.70;99.90;;;;;;5096508;28;20205;-78
2024/03/10 08:28:37;;;;;;;70.03;33.87;;;3.80;99.90;;;;;;5098144;28;20672;-78
2024/03/10 08:31:05;;;;;;;57.50;28.67;;;3.80;99.90;;;;;;5103730;28;20252;-80
2024/03/10 08:33:33;;;;;;;68.07;35.33;;;3.90;99.90;;;;;;5106163;28;20655;-79
2024/03/10 08:36:00;;;;;;;71.53;35.90;;;4.00;99.90;;;;;;5102693;28;20201;-81
2024/03/10 08:38:29;;;;;;;60.43;30.30;;;4.00;99.90;;;;;;5109355;28;20201;-80
2024/03/10 08:40:57;;;;;;;65.70;33.97;;;4.00;99.90;;;;;;5109981;28;20271;-79
2024/03/10 08:43:24;;;;;;;59.83;30.23;;;4.10;99.90;;;;;;5101581;28;20228;-79
2024/03/10 08:45:51;;;;;;;58.70;28.70;;;4.20;99.90;;;;;;5105667;28;20300;-78
2024/03/10 08:48:19;;;;;;;50.13;27.13;;;4.20;99.90;;;;;;5102208;28;20201;-78
2024/03/10 08:50:46;;;;;;;62.23;32.77;;;4.30;99.90;;;;;;5110489;28;20759;-78
2024/03/10 08:53:13;;;;;;;64.67;31.27;;;4.30;99.90;;;;;;5106790;28;20229;-78
2024/03/10 08:55:41;;;;;;;55.57;28.47;;;4.40;99.90;;;;;;5105929;28;20262;-78
2024/03/10 08:58:09;;;;;;;61.37;33.07;;;4.50;99.90;;;;;;5112114;28;20699;-79
2024/03/10 09:00:35;;;;;;;65.77;30.90;;;4.50;99.90;;;;;;5102566;28;20308;-77
2024/03/10 09:03:04;;;;;;;63.10;29.47;;;4.60;99.90;;;;;;5103138;28;20239;-78
2024/03/10 09:05:30;;;;;;;62.67;31.33;;;4.60;99.90;;;;;;5114760;28;20231;-78
2024/03/10 09:07:58;;;;;;;63.27;33.67;;;4.70;99.90;;;;;;5106495;28;20220;-78
2024/03/10 09:10:25;;;;;;;58.87;31.87;;;4.80;99.90;;;;;;5104864;28;20305;-78
2024/03/10 09:12:53;;;;;;;62.23;32.77;;;4.80;99.90;;;;;;5113151;28;20201;-79
2024/03/10 09:15:22;;;;;;;52.93;27.80;;;4.90;99.90;;;;;;5110696;28;20201;-80
2024/03/10 09:17:49;;;;;;;56.50;30.17;;;5.00;99.90;;;;;;5112950;28;20233;-80
2024/03/10 09:20:20;;;;;;;61.47;33.87;;;5.20;99.90;;;;;;5103535;28;20213;-79
2024/03/10 09:22:47;;;;;;;42.90;22.63;;;5.20;99.90;;;;;;5114135;28;20552;-79
2024/03/10 09:25:21;;;;;;;57.63;30.00;;;5.30;99.90;;;;;;5113131;28;20251;-79
2024/03/10 09:27:48;;;;;;;44.03;23.53;;;5.40;99.90;;;;;;5103787;28;20263;-78
2024/03/10 09:30:18;;;;;;;56.73;32.73;;;5.40;99.90;;;;;;5099734;28;20221;-78
2024/03/10 09:32:49;;;;;;;56.60;23.30;;;5.50;99.90;;;;;;5108789;28;20288;-79
2024/03/10 09:35:23;;;;;;;51.60;27.43;;;5.60;99.90;;;;;;5097803;28;20202;-79
2024/03/10 09:37:51;;;;;;;52.00;26.03;;;5.70;99.90;;;;;;5097028;28;20220;-79
2024/03/10 09:40:21;;;;;;;46.80;23.40;;;6.30;99.90;;;;;;5100198;28;20243;-80
2024/03/10 09:42:48;;;;;;;50.57;26.57;;;5.70;99.90;;;;;;5102780;28;20313;-79
2024/03/10 09:45:16;;;;;;;39.90;22.37;;;5.80;99.90;;;;;;5099008;28;20213;-78
2024/03/10 09:47:48;;;;;;;43.47;25.37;;;5.80;99.90;;;;;;5099391;28;20290;-79
2024/03/10 09:50:22;;;;;;;35.40;18.90;;;5.90;99.90;;;;;;5106903;28;20224;-79
2024/03/10 09:52:53;;;;;;;45.17;25.33;;;5.90;99.90;;;;;;5103366;28;20265;-79
2024/03/10 09:55:21;;;;;;;49.87;28.10;;;5.90;99.90;;;;;;5109930;28;20291;-79
2024/03/10 09:57:53;;;;;;;53.33;29.00;;;6.10;99.90;;;;;;5102294;28;20206;-81
2024/03/10 10:00:24;;;;;;;41.93;23.90;;;6.10;99.90;;;;;;5102116;28;20332;-80
2024/03/10 10:02:55;;;;;;;45.80;23.80;;;6.10;99.90;;;;;;5104103;28;20300;-80
2024/03/10 10:05:29;;;;;;;49.30;27.63;;;6.30;99.90;;;;;;5108217;28;20201;-79
2024/03/10 10:07:57;;;;;;;34.33;18.67;;;6.40;99.90;;;;;;5099781;28;20208;-79
2024/03/10 10:10:24;;;;;;;41.27;22.23;;;6.40;99.90;;;;;;5105696;28;20221;-78
2024/03/10 10:12:52;;;;;;;51.87;29.37;;;6.50;99.90;;;;;;5097457;28;20202;-79
2024/03/10 10:15:21;;;;;;;44.73;25.67;;;6.60;99.90;;;;;;5105776;28;20221;-79
2024/03/10 10:17:57;;;;;;;45.83;28.77;;;6.70;99.90;;;;;;5105863;28;20205;-79
2024/03/10 10:20:25;;;;;;;37.97;20.13;;;6.70;43.40;;;;;;5102134;28;20216;-78
2024/03/10 10:22:54;;;;;;;47.67;28.10;;;6.80;1.00;;;;;;5101610;28;20628;-79
2024/03/10 10:25:22;;;;;;;45.43;26.57;;;6.90;1.00;;;;;;5106475;28;20288;-79
2024/03/10 10:27:50;;;;;;;46.07;27.17;;;6.90;1.00;;;;;;5113034;28;20232;-79
2024/03/10 10:30:22;;;;;;;44.83;23.20;;;7.00;1.00;;;;;;5111692;28;20221;-79
2024/03/10 10:32:50;;;;;;;48.17;29.13;;;7.00;37.60;;;;;;5112430;28;20280;-78
2024/03/10 10:35:19;;;;;;;47.67;27.77;;;7.20;1.00;;;;;;5103978;28;20197;-79
2024/03/10 10:37:47;;;;;;;38.63;19.77;;;7.30;1.00;;;;;;5098439;28;20233;-80
2024/03/10 10:40:15;;;;;;;41.80;24.50;;;7.30;99.90;;;;;;5095875;28;20225;-81
2024/03/10 10:42:43;;;;;;;47.17;26.63;;;7.50;1.00;;;;;;5106718;28;20671;-81
2024/03/10 10:45:10;;;;;;;46.63;28.87;;;7.70;1.00;;;;;;5097431;28;20241;-79
2024/03/10 10:47:39;;;;;;;47.37;30.97;;;7.90;99.90;;;;;;5102560;28;20201;-79
2024/03/10 10:50:14;;;;;;;44.03;27.87;;;7.90;27.70;;;;;;5094567;28;20296;-78
2024/03/10 10:52:45;;;;;;;44.40;25.83;;;8.20;1.00;;;;;;5095823;28;20266;-79
2024/03/10 10:55:13;;;;;;;43.33;29.17;;;8.40;1.00;;;;;;5108055;28;20280;-77
2024/03/10 10:57:46;;;;;;;41.37;27.80;;;8.60;99.90;;;;;;5100577;28;20204;-79
2024/03/10 11:00:27;;;;;;;42.83;28.03;;;8.80;1.00;;;;;;5099044;28;20284;-79
2024/03/10 11:03:16;;;;;;;42.97;27.07;;;8.40;1.00;;;;;;5096113;28;20204;-80
2024/03/10 11:05:45;;;;;;;40.90;25.13;;;8.30;99.90;;;;;;5101684;28;20252;-79
2024/03/10 11:08:15;;;;;;;45.20;30.00;;;8.20;99.90;;;;;;5103758;28;20208;-79
2024/03/10 11:10:47;;;;;;;44.97;27.93;;;8.40;99.90;;;;;;5100953;28;20255;-80
2024/03/10 11:13:18;;;;;;;45.60;28.83;;;8.30;1.00;;;;;;5104554;28;20204;-80
2024/03/10 11:15:46;;;;;;;36.40;21.27;;;8.30;7.80;;;;;;5106402;28;20208;-80
2024/03/10 11:18:25;;;;;;;44.47;28.37;;;8.30;1.00;;;;;;5109650;28;20202;-80
2024/03/10 11:20:53;;;;;;;43.93;29.10;;;8.40;1.00;;;;;;5107304;28;20255;-79
2024/03/10 11:23:26;;;;;;;39.90;25.80;;;8.40;1.00;;;;;;5107409;28;20218;-80
2024/03/10 11:25:53;;;;;;;40.90;25.17;;;8.40;1.00;;;;;;5108722;28;20291;-80
2024/03/10 11:28:25;;;;;;;38.30;23.20;;;8.50;1.00;;;;;;5104662;28;20254;-80
2024/03/10 11:30:56;;;;;;;36.70;21.63;;;8.50;1.00;;;;;;5112301;28;20223;-79
2024/03/10 11:33:24;;;;;;;38.00;24.20;;;8.70;99.90;;;;;;5111211;28;20224;-80
2024/03/10 11:35:54;;;;;;;34.07;19.73;;;8.90;1.00;;;;;;5107186;28;20991;-80
2024/03/10 11:38:21;;;;;;;37.30;20.57;;;9.10;99.90;;;;;;5110860;28;20262;-79
2024/03/10 11:41:07;;;;;;;35.97;23.93;;;9.00;17.60;;;;;;5104457;28;20229;-80
2024/03/10 11:43:35;;;;;;;32.83;19.23;;;9.40;83.70;;;;;;5104964;28;20699;-80
2024/03/10 11:46:03;;;;;;;35.27;21.63;;;9.60;1.00;;;;;;5103090;28;20210;-80
2024/03/10 11:48:31;;;;;;;38.77;23.73;;;9.50;1.00;;;;;;5105026;28;20238;-80
2024/03/10 11:50:59;;;;;;;33.37;20.63;;;9.70;1.00;;;;;;5105889;28;20221;-81
2024/03/10 11:53:26;;;;;;;36.80;23.47;;;9.80;1.00;;;;;;5108379;28;20197;-80
2024/03/10 11:56:00;;;;;;;37.10;25.27;;;10.10;1.00;;;;;;5104767;28;20201;-81
2024/03/10 11:58:28;;;;;;;37.80;25.30;;;10.60;1.00;;;;;;5100558;28;20233;-79
2024/03/10 12:00:55;;;;;;;38.30;25.47;;;10.90;1.00;;;;;;5105897;28;20719;-79
2024/03/10 12:03:22;;;;;;;34.97;20.77;;;10.90;99.90;;;;;;5103334;28;20225;-79
2024/03/10 12:05:49;;;;;;;32.73;18.53;;;10.50;99.90;;;;;;5098475;28;20213;-79
2024/03/10 12:08:17;;;;;;;33.50;22.03;;;10.40;99.90;;;;;;5108728;28;20713;-82
2024/03/10 12:10:44;;;;;;;35.57;23.77;;;10.50;99.90;;;;;;5104978;28;20235;-81
2024/03/10 12:13:20;;;;;;;29.00;15.80;;;10.50;90.00;;;;;;5104264;28;20293;-79
2024/03/10 12:15:51;;;;;;;34.97;23.90;;;10.40;93.00;;;;;;5105640;28;20276;-80
2024/03/10 12:18:18;;;;;;;33.93;21.80;;;10.50;51.90;;;;;;5098971;28;20244;-80
2024/03/10 12:20:45;;;;;;;35.70;21.90;;;10.50;43.10;;;;;;5110140;28;20571;-78
2024/03/10 12:23:13;;;;;;;34.67;24.17;;;10.60;99.90;;;;;;5105374;28;20225;-81
2024/03/10 12:25:42;;;;;;;28.77;16.27;;;10.70;99.90;;;;;;5095567;28;20201;-79
2024/03/10 12:28:11;;;;;;;32.87;20.10;;;10.30;1.00;;;;;;5095281;28;20209;-79
2024/03/10 12:30:40;;;;;;;32.47;21.37;;;10.40;43.10;;;;;;5102220;28;20225;-80
2024/03/10 12:33:09;;;;;;;34.17;23.17;;;10.30;1.00;;;;;;5096017;28;20298;-81
2024/03/10 12:35:36;;;;;;;30.87;19.07;;;10.20;1.00;;;;;;5104507;28;20698;-81
2024/03/10 12:38:04;;;;;;;31.97;18.27;;;10.00;1.00;;;;;;5096289;28;20209;-79
2024/03/10 12:40:33;;;;;;;34.77;21.07;;;10.00;1.00;;;;;;5095386;28;20902;-82
2024/03/10 12:43:02;;;;;;;34.43;23.90;;;10.10;13.60;;;;;;5100490;28;20360;-81
2024/03/10 12:45:29;;;;;;;32.07;21.03;;;10.40;1.00;;;;;;5092349;28;20228;-80
2024/03/10 12:47:58;;;;;;;35.40;24.93;;;10.40;1.00;;;;;;5091320;28;20198;-80
2024/03/10 12:50:26;;;;;;;35.17;22.20;;;10.60;1.00;;;;;;5101498;28;20253;-80
2024/03/10 12:52:52;;;;;;;32.57;20.80;;;10.40;1.00;;;;;;5106483;27;20250;-79
2024/03/10 12:55:20;;;;;;;31.70;18.53;;;10.30;1.00;;;;;;5100568;28;20295;-81
2024/03/10 12:57:47;;;;;;;37.57;25.30;;;10.20;1.00;;;;;;5092441;28;20216;-79
2024/03/10 13:00:27;;;;;;;37.30;25.10;;;10.30;21.10;;;;;;5106204;28;20264;-81
2024/03/10 13:02:55;;;;;;;26.83;16.73;;;10.40;1.00;;;;;;5094380;28;20534;-80
2024/03/10 13:05:23;;;;;;;36.47;25.03;;;10.30;1.00;;;;;;5098591;28;20539;-81